Clemons, Iowa
Current Conditions -  °F | °C
As of 3:53 AM on Sunday 21 Dec 2014 (Local Time) from KMIW Reporting Station
Haze Haze  
Wind Chill: 27°   Ceiling: 300
Heat Index: 35°   Visibility: 3mi
Dew Point: 35°   Wind: 10mph
Humidity: 100%   Direction: 170°S
Pressure: 30.02"   Gusts: NA
Location:  42.11°N, 93.16°W
Report Text: KMIW 210953Z AUTO 17009KT 3SM BR OVC003 02/02 A3002 RMK AO2 SLP174 T00170017
Loading
Personal Weather Stations






























Interactive Weather Map New forecast layout! Learn more

10-Day Weather Forecast

Advertisements
Track Severe Weather on mobile